createdAt,value
2023-01-17T00:00:58.173Z,67.81
2023-01-17T00:07:00.576Z,68.21
2023-01-17T00:13:04.252Z,68.09
2023-01-17T00:19:08.193Z,68.42
2023-01-17T00:25:10.227Z,68.36
2023-01-17T00:30:46.625Z,68.78
2023-01-17T00:36:29.726Z,68.66
2023-01-17T00:42:12.830Z,68.66
2023-01-17T00:48:14.354Z,68.84
2023-01-17T00:54:18.862Z,68.95
2023-01-17T01:00:21.057Z,69.19
2023-01-17T01:06:22.982Z,69.38
2023-01-17T01:12:24.762Z,69.56
2023-01-17T01:18:25.411Z,69.54
2023-01-17T01:24:27.706Z,69.53
2023-01-17T01:30:29.996Z,69.83
2023-01-17T01:36:26.925Z,69.87
2023-01-17T01:42:30.389Z,70.18
2023-01-17T01:48:42.965Z,70.09
2023-01-17T01:54:55.223Z,70.13
2023-01-17T02:00:58.912Z,70.26
2023-01-17T02:07:05.662Z,70.43
2023-01-17T02:12:53.005Z,70.56
2023-01-17T02:19:01.143Z,70.56
2023-01-17T02:25:10.332Z,70.48
2023-01-17T02:31:20.058Z,70.60
2023-01-17T02:37:23.522Z,70.56
2023-01-17T02:43:26.892Z,70.50
2023-01-17T02:49:30.604Z,70.72
2023-01-17T02:55:39.793Z,70.90
2023-01-17T03:01:49.493Z,70.84
2023-01-17T03:07:52.964Z,71.26
2023-01-17T03:13:56.745Z,71.30
2023-01-17T03:20:00.200Z,71.45
2023-01-17T03:26:03.670Z,72.14
2023-01-17T03:32:07.031Z,72.54
2023-01-17T03:38:10.624Z,72.95
2023-01-17T03:44:13.999Z,73.12
2023-01-17T03:50:17.405Z,73.08
2023-01-17T03:56:20.771Z,73.43
2023-01-17T04:02:23.035Z,73.44
2023-01-17T04:08:26.731Z,73.91
2023-01-17T04:14:30.150Z,74.10
2023-01-17T04:20:33.772Z,74.43
2023-01-17T04:26:37.144Z,74.65
2023-01-17T04:32:40.813Z,74.78
2023-01-17T04:38:44.232Z,74.71
2023-01-17T04:44:47.776Z,74.66
2023-01-17T04:50:41.494Z,75.11
2023-01-17T04:56:47.950Z,75.12
2023-01-17T05:02:51.409Z,75.80
2023-01-17T05:08:53.543Z,76.42
2023-01-17T05:14:57.144Z,76.81
2023-01-17T05:20:48.118Z,76.80
2023-01-17T05:26:30.016Z,77.18
2023-01-17T05:32:12.726Z,77.42
2023-01-17T05:38:01.234Z,77.61
2023-01-17T05:43:24.630Z,77.79
2023-01-17T05:49:07.987Z,77.76
2023-01-17T05:54:37.042Z,77.92
2023-01-17T06:00:03.917Z,78.12
2023-01-17T06:05:57.179Z,77.89
2023-01-17T06:11:18.093Z,77.77
2023-01-17T06:17:01.500Z,78.03
2023-01-17T06:22:44.710Z,77.95
2023-01-17T06:28:16.898Z,77.93
2023-01-17T06:33:38.952Z,78.06
2023-01-17T06:39:18.822Z,78.07
2023-01-17T06:44:23.189Z,77.92
2023-01-17T06:49:29.055Z,77.61
2023-01-17T06:54:49.339Z,77.81
2023-01-17T07:00:04.839Z,78.07
2023-01-17T07:05:20.528Z,78.01
2023-01-17T07:10:30.982Z,78.25
2023-01-17T07:15:37.185Z,78.09
2023-01-17T07:20:47.453Z,78.10
2023-01-17T07:26:11.036Z,77.93
2023-01-17T07:31:16.791Z,77.81
2023-01-17T07:36:23.289Z,77.84
2023-01-17T07:41:26.894Z,77.56
2023-01-17T07:46:29.949Z,77.74
2023-01-17T07:51:35.774Z,77.81
2023-01-17T07:56:45.514Z,77.60
2023-01-17T08:01:59.881Z,77.37
2023-01-17T08:07:07.852Z,77.04
2023-01-17T08:12:15.932Z,76.98
2023-01-17T08:17:38.200Z,77.05
2023-01-17T08:22:43.918Z,77.06
2023-01-17T08:27:58.857Z,76.86
2023-01-17T08:33:17.397Z,76.86
2023-01-17T08:38:23.619Z,76.91
2023-01-17T08:43:34.396Z,76.77
2023-01-17T08:48:43.144Z,76.96
2023-01-17T08:54:14.676Z,76.83
2023-01-17T08:59:43.570Z,76.54
2023-01-17T09:04:52.134Z,76.41
2023-01-17T09:10:44.288Z,76.23
2023-01-17T09:16:05.381Z,76.02
2023-01-17T09:21:29.611Z,75.61
2023-01-17T09:27:22.112Z,75.58
2023-01-17T09:32:44.796Z,75.66
2023-01-17T09:37:55.312Z,75.45
2023-01-17T09:43:41.021Z,75.50
2023-01-17T09:48:52.668Z,75.84
2023-01-17T09:54:06.090Z,76.25
2023-01-17T09:59:36.171Z,76.73
2023-01-17T10:05:08.849Z,76.89
2023-01-17T10:10:26.237Z,76.72
2023-01-17T10:15:54.218Z,76.62
2023-01-17T10:21:40.753Z,76.67
2023-01-17T10:26:56.233Z,76.81
2023-01-17T10:32:34.265Z,76.52
2023-01-17T10:38:03.543Z,76.24
2023-01-17T10:44:08.061Z,76.38
2023-01-17T10:49:47.341Z,77.03
2023-01-17T10:55:18.596Z,76.83
2023-01-17T11:01:20.590Z,76.86
2023-01-17T11:06:57.085Z,76.57
2023-01-17T11:12:39.545Z,76.50
2023-01-17T11:18:05.392Z,76.19
2023-01-17T11:23:30.276Z,76.40
2023-01-17T11:28:41.489Z,76.70
2023-01-17T11:34:05.366Z,76.40
2023-01-17T11:39:48.048Z,77.07
2023-01-17T11:44:53.457Z,77.15
2023-01-17T11:50:15.994Z,77.42
2023-01-17T11:55:47.247Z,77.86
2023-01-17T12:01:27.196Z,78.55
2023-01-17T12:06:56.800Z,78.82
2023-01-17T12:12:51.962Z,79.08
2023-01-17T12:18:41.687Z,79.64
2023-01-17T12:24:52.509Z,80.40
2023-01-17T12:30:32.575Z,81.14
2023-01-17T12:35:53.118Z,80.86
2023-01-17T12:41:23.534Z,81.42
2023-01-17T12:47:04.534Z,80.67
2023-01-17T12:52:28.632Z,80.71
2023-01-17T12:57:57.537Z,80.42
2023-01-17T13:03:49.544Z,80.29
2023-01-17T13:09:00.789Z,79.67
2023-01-17T13:14:12.700Z,79.67
2023-01-17T13:19:46.100Z,79.45
2023-01-17T13:25:44.298Z,79.17
2023-01-17T13:30:58.942Z,78.67
2023-01-17T13:37:08.785Z,78.50
2023-01-17T13:42:36.144Z,77.75
2023-01-17T13:47:44.279Z,77.58
2023-01-17T13:52:52.105Z,76.94
2023-01-17T13:57:59.877Z,76.89
2023-01-17T14:03:12.159Z,76.46
2023-01-17T14:08:21.992Z,76.43
2023-01-17T14:13:37.252Z,76.71
2023-01-17T14:18:55.922Z,76.98
2023-01-17T14:24:25.082Z,76.68
2023-01-17T14:29:50.720Z,76.69
2023-01-17T14:34:57.398Z,76.45
2023-01-17T14:40:41.258Z,76.27
2023-01-17T14:46:10.629Z,76.15
2023-01-17T14:51:35.565Z,76.34
2023-01-17T14:56:46.546Z,76.30
2023-01-17T15:02:18.738Z,75.90
2023-01-17T15:07:56.521Z,76.39
2023-01-17T15:13:42.711Z,76.67
2023-01-17T15:19:00.350Z,76.58
2023-01-17T15:24:39.874Z,75.94
2023-01-17T15:29:48.217Z,75.94
2023-01-17T15:35:03.043Z,75.85
2023-01-17T15:41:05.146Z,75.85
2023-01-17T15:46:50.530Z,75.82
2023-01-17T15:52:04.803Z,75.67
2023-01-17T15:57:47.908Z,75.85
2023-01-17T16:03:22.063Z,76.00
2023-01-17T16:08:39.604Z,76.08
2023-01-17T16:13:47.260Z,76.20
2023-01-17T16:18:59.075Z,76.56
2023-01-17T16:24:12.345Z,76.48
2023-01-17T16:29:18.414Z,76.43
2023-01-17T16:34:29.164Z,76.31
2023-01-17T16:39:47.641Z,76.50
2023-01-17T16:45:00.847Z,76.49
2023-01-17T16:50:18.056Z,76.67
2023-01-17T16:55:32.781Z,76.52
2023-01-17T17:00:49.350Z,76.80
2023-01-17T17:06:00.823Z,76.66
2023-01-17T17:11:24.928Z,76.79
2023-01-17T17:16:31.099Z,76.66
2023-01-17T17:21:49.239Z,76.91
2023-01-17T17:26:57.197Z,76.93
2023-01-17T17:32:11.461Z,76.92
2023-01-17T17:37:30.298Z,76.99
2023-01-17T17:42:39.015Z,77.12
2023-01-17T17:47:44.795Z,77.06
2023-01-17T17:52:53.766Z,77.20
2023-01-17T17:58:02.096Z,77.21
2023-01-17T18:03:20.548Z,77.43
2023-01-17T18:09:23.974Z,77.52
2023-01-17T18:15:27.660Z,77.54
2023-01-17T18:21:23.394Z,77.67
2023-01-17T18:27:27.112Z,77.75
2023-01-17T18:33:30.975Z,77.79
2023-01-17T18:39:37.664Z,77.96
2023-01-17T18:45:39.917Z,77.85
2023-01-17T18:51:43.307Z,77.91
2023-01-17T18:57:45.973Z,77.90
2023-01-17T19:03:49.844Z,78.08
2023-01-17T19:09:47.074Z,78.17
2023-01-17T19:15:50.834Z,78.38
2023-01-17T19:21:54.284Z,78.63
2023-01-17T19:27:58.122Z,78.53
2023-01-17T19:34:01.703Z,78.57
2023-01-17T19:40:05.295Z,78.69
2023-01-17T19:46:08.969Z,78.78
2023-01-17T19:51:35.900Z,78.65
2023-01-17T19:57:39.306Z,78.76
2023-01-17T20:03:42.760Z,78.59
2023-01-17T20:09:46.159Z,78.73
2023-01-17T20:15:32.914Z,78.72
2023-01-17T20:21:36.355Z,78.89
2023-01-17T20:27:40.110Z,78.75
2023-01-17T20:33:43.124Z,78.90
2023-01-17T20:39:46.570Z,79.00
2023-01-17T20:45:50.185Z,79.07
2023-01-17T20:51:53.567Z,79.00
2023-01-17T20:57:49.610Z,79.07
2023-01-17T21:03:52.992Z,79.17
2023-01-17T21:09:56.464Z,79.21
2023-01-17T21:15:52.659Z,79.29
2023-01-17T21:21:56.210Z,79.49
2023-01-17T21:27:59.851Z,79.49
2023-01-17T21:34:03.258Z,79.58
2023-01-17T21:40:06.701Z,79.47
2023-01-17T21:46:08.860Z,79.50
2023-01-17T21:52:15.066Z,79.70
2023-01-17T21:58:16.863Z,79.71
2023-01-17T22:04:20.042Z,79.77
2023-01-17T22:10:23.717Z,79.74
2023-01-17T22:16:17.389Z,79.86
2023-01-17T22:22:13.959Z,79.73
2023-01-17T22:28:07.366Z,79.78
2023-01-17T22:34:04.611Z,79.65
2023-01-17T22:40:08.073Z,79.92
2023-01-17T22:46:11.826Z,79.86
2023-01-17T22:52:15.314Z,79.69
2023-01-17T22:58:18.717Z,80.02
2023-01-17T23:04:14.822Z,79.92
2023-01-17T23:10:18.248Z,79.86
2023-01-17T23:16:20.285Z,80.12
2023-01-17T23:22:14.819Z,79.84
2023-01-17T23:28:32.697Z,80.25
2023-01-17T23:34:36.089Z,79.94
2023-01-17T23:40:39.961Z,80.26
2023-01-17T23:46:43.384Z,80.31
2023-01-17T23:52:47.181Z,80.08
2023-01-17T23:58:43.705Z,80.43
